Time;durP1;ratioP1;P1;durP2;ratioP2;P2;SDS_P1;SDS_P2;PMS_P1;PMS_P2;Temp;Humidity;BMP_temperature;BMP_pressure;BME280_temperature;BME280_humidity;BME280_pressure;Samples;Min_cycle;Max_cycle;Signal;HPM_P1;HPM_P2
2023/09/05 00:00:35;;;;;;;5.80;2.08;;;;;;;18.25;100.00;95137.50;4938547;29;20048;-83
2023/09/05 00:03:01;;;;;;;3.67;2.30;;;;;;;18.58;100.00;95133.91;4905488;29;20418;-84
2023/09/05 00:05:26;;;;;;;7.97;2.30;;;;;;;18.52;100.00;95125.28;4921608;29;20110;-83
2023/09/05 00:07:51;;;;;;;4.20;2.47;;;;;;;18.26;96.91;95133.00;4937981;29;20036;-83
2023/09/05 00:10:17;;;;;;;2.60;1.83;;;;;;;18.65;96.16;95139.59;4921824;29;20044;-84
2023/09/05 00:12:43;;;;;;;8.20;2.22;;;;;;;18.71;90.64;95137.59;4921740;29;20078;-83
2023/09/05 00:15:13;;;;;;;3.88;2.00;;;;;;;18.81;88.48;95136.59;4921058;29;20039;-83
2023/09/05 00:17:39;;;;;;;4.13;1.98;;;;;;;18.72;91.62;95139.16;4921102;29;20032;-83
2023/09/05 00:20:05;;;;;;;4.43;1.95;;;;;;;18.72;90.99;95132.00;4945451;29;20101;-84
2023/09/05 00:22:31;;;;;;;4.03;1.90;;;;;;;18.89;91.39;95127.91;4939867;29;20035;-84
2023/09/05 00:24:56;;;;;;;4.15;2.30;;;;;;;18.64;90.13;95130.03;4924278;29;20515;-83
2023/09/05 00:27:22;;;;;;;4.72;2.20;;;;;;;18.65;92.48;95129.75;4940041;29;20453;-83
2023/09/05 00:29:47;;;;;;;5.22;2.15;;;;;;;18.39;91.52;95128.75;4939438;29;20042;-83
2023/09/05 00:32:13;;;;;;;5.53;2.10;;;;;;;18.57;95.11;95129.69;4939304;29;20039;-83
2023/09/05 00:34:39;;;;;;;3.75;2.22;;;;;;;18.67;97.24;95126.81;4939533;29;20066;-83
2023/09/05 00:37:06;;;;;;;6.55;1.90;;;;;;;18.75;94.12;95125.31;4939388;29;20082;-84
2023/09/05 00:39:33;;;;;;;4.75;2.25;;;;;;;18.23;93.14;95113.16;4939428;29;20437;-83
2023/09/05 00:42:01;;;;;;;3.80;2.10;;;;;;;18.54;93.01;95117.78;4940014;29;20437;-83
2023/09/05 00:44:27;;;;;;;5.60;1.85;;;;;;;18.65;91.48;95110.41;4924288;29;20035;-84
2023/09/05 00:46:54;;;;;;;5.30;2.03;;;;;;;18.62;91.39;95110.97;4939536;29;20495;-83
2023/09/05 00:49:22;;;;;;;4.22;1.92;;;;;;;18.76;94.51;95108.28;4939988;29;20043;-83
2023/09/05 00:51:50;;;;;;;7.18;2.10;;;;;;;18.13;94.96;95106.19;4939834;29;20373;-83
2023/09/05 00:54:16;;;;;;;4.35;1.90;;;;;;;18.47;94.58;95110.25;4939835;29;20038;-83
2023/09/05 00:56:43;;;;;;;8.18;2.55;;;;;;;18.44;91.80;95118.81;4939686;29;20058;-84
2023/09/05 00:59:09;;;;;;;4.55;2.08;;;;;;;18.30;85.13;95113.53;4938999;29;20039;-83
2023/09/05 01:01:35;;;;;;;9.15;2.08;;;;;;;18.08;89.96;95114.25;4939222;29;20031;-83
2023/09/05 01:04:00;;;;;;;5.25;2.25;;;;;;;18.21;91.45;95113.44;4956594;29;20039;-84
2023/09/05 01:06:31;;;;;;;3.60;1.88;;;;;;;18.26;90.32;95107.25;4939209;29;20348;-83
2023/09/05 01:09:03;;;;;;;5.32;1.75;;;;;;;18.40;87.47;95109.88;4939321;29;20130;-84
2023/09/05 01:11:29;;;;;;;6.00;2.10;;;;;;;18.64;86.54;95101.66;4956687;29;20031;-83
2023/09/05 01:13:54;;;;;;;4.35;1.88;;;;;;;18.45;83.68;95101.81;4939175;29;20043;-83
2023/09/05 01:16:20;;;;;;;4.93;2.05;;;;;;;18.69;82.79;95097.28;4923382;29;20031;-83
2023/09/05 01:18:46;;;;;;;7.80;2.15;;;;;;;18.31;82.18;95098.41;4939213;29;20039;-83
2023/09/05 01:21:32;;;;;;;2.85;1.70;;;;;;;18.48;78.95;95095.88;4939515;29;20046;-83
2023/09/05 01:24:16;;;;;;;3.60;1.88;;;;;;;18.48;80.21;95093.22;4956080;29;20410;-83
2023/09/05 01:26:42;;;;;;;6.28;2.05;;;;;;;18.01;81.68;95082.81;4938889;29;20129;-83
2023/09/05 01:29:08;;;;;;;6.05;1.90;;;;;;;18.06;82.34;95085.38;4923126;29;20031;-83
2023/09/05 01:31:34;;;;;;;5.22;2.60;;;;;;;17.74;83.77;95080.97;4938854;29;20030;-83
2023/09/05 01:33:59;;;;;;;5.82;2.20;;;;;;;18.04;81.87;95078.81;4939238;29;20039;-83
2023/09/05 01:36:25;;;;;;;3.85;1.90;;;;;;;17.93;83.88;95084.31;4923269;29;20039;-83
2023/09/05 01:38:51;;;;;;;6.93;2.22;;;;;;;18.02;84.03;95084.41;4938939;29;20043;-83
2023/09/05 01:41:16;;;;;;;3.83;2.05;;;;;;;18.22;79.82;95087.72;4938569;29;20050;-83
2023/09/05 01:43:41;;;;;;;3.83;1.90;;;;;;;18.48;77.23;95093.22;4938957;29;20043;-84
2023/09/05 01:46:07;;;;;;;5.72;2.35;;;;;;;18.64;76.18;95091.03;4938603;29;20031;-84
2023/09/05 01:48:33;;;;;;;5.15;2.40;;;;;;;18.51;75.13;95092.66;4938852;29;20039;-83
2023/09/05 01:50:58;;;;;;;4.07;2.00;;;;;;;18.55;77.98;95097.34;4938648;29;20035;-83
2023/09/05 01:53:24;;;;;;;2.47;1.77;;;;;;;18.63;73.73;95091.31;4923040;29;20472;-83
2023/09/05 01:55:49;;;;;;;4.97;2.05;;;;;;;18.51;72.17;95092.66;4956088;29;20039;-83
2023/09/05 01:58:15;;;;;;;4.15;2.15;;;;;;;18.63;73.66;95088.66;4938794;29;20046;-83
2023/09/05 02:00:40;;;;;;;3.00;1.60;;;;;;;18.83;72.22;95084.75;4938848;29;20133;-83
2023/09/05 02:03:06;;;;;;;2.90;1.90;;;;;;;18.88;72.25;95081.19;4955844;29;20042;-83
2023/09/05 02:05:31;;;;;;;5.10;2.13;;;;;;;18.97;72.97;95078.59;4956971;28;20456;-83
2023/09/05 02:07:57;;;;;;;2.58;1.80;;;;;;;18.86;71.51;95075.41;4942719;29;20121;-83
2023/09/05 02:10:22;;;;;;;3.15;1.80;;;;;;;18.58;72.66;95067.56;4942602;29;20035;-83
2023/09/05 02:12:49;;;;;;;6.10;2.10;;;;;;;18.48;71.49;95068.59;4942274;29;20035;-83
2023/09/05 02:15:14;;;;;;;3.03;1.98;;;;;;;18.53;72.68;95073.00;4959757;29;20520;-83
2023/09/05 02:17:40;;;;;;;5.57;2.33;;;;;;;18.06;76.52;95068.69;4942219;29;20135;-83
2023/09/05 02:20:06;;;;;;;3.58;1.95;;;;;;;17.60;80.14;95071.16;4942192;29;20038;-83
2023/09/05 02:22:31;;;;;;;3.72;2.08;;;;;;;17.59;80.37;95064.28;4942430;29;20441;-82
2023/09/05 02:24:59;;;;;;;4.25;2.42;;;;;;;18.01;77.56;95066.91;4942015;29;20164;-83
2023/09/05 02:27:25;;;;;;;4.97;2.10;;;;;;;18.03;75.57;95063.97;4942781;29;20035;-83
2023/09/05 02:29:56;;;;;;;3.53;2.10;;;;;;;18.16;76.09;95059.75;4942402;29;20043;-83
2023/09/05 02:32:22;;;;;;;3.00;1.90;;;;;;;17.82;73.84;95056.44;4943038;29;20031;-83
2023/09/05 02:34:52;;;;;;;4.53;2.28;;;;;;;17.72;72.11;95053.97;4959478;29;20031;-83
2023/09/05 02:37:18;;;;;;;4.32;2.25;;;;;;;18.28;74.00;95064.53;4942538;29;20437;-83
2023/09/05 02:39:43;;;;;;;4.90;1.98;;;;;;;18.18;71.43;95061.00;4941967;29;20074;-83
2023/09/05 02:42:09;;;;;;;4.03;2.47;;;;;;;18.06;67.53;95053.56;4942165;29;20035;-83
2023/09/05 02:44:34;;;;;;;4.30;2.30;;;;;;;17.94;68.88;95053.25;4942122;29;20089;-83
2023/09/05 02:47:00;;;;;;;7.25;2.47;;;;;;;18.08;67.33;95063.88;4942040;29;20042;-83
2023/09/05 02:49:25;;;;;;;5.90;2.50;;;;;;;17.93;70.73;95060.44;4941720;29;20119;-83
2023/09/05 02:51:50;;;;;;;4.13;2.28;;;;;;;18.16;70.56;95070.34;4941640;29;20027;-83
2023/09/05 02:54:16;;;;;;;3.67;2.20;;;;;;;18.07;69.52;95068.38;4941933;29;20039;-83
2023/09/05 02:56:41;;;;;;;7.25;2.65;;;;;;;18.16;70.93;95065.03;4941734;29;20031;-83
2023/09/05 02:59:06;;;;;;;5.25;2.30;;;;;;;17.76;74.46;95065.53;4941749;29;20030;-83
2023/09/05 03:01:32;;;;;;;5.75;2.45;;;;;;;17.68;75.06;95064.38;4958989;29;20122;-83
2023/09/05 03:03:58;;;;;;;5.13;2.35;;;;;;;17.83;77.50;95067.78;4958853;29;20056;-83
2023/09/05 03:06:23;;;;;;;3.85;2.08;;;;;;;18.00;79.29;95069.84;4941584;29;20035;-83
2023/09/05 03:08:49;;;;;;;6.68;2.50;;;;;;;17.60;80.51;95068.50;4958798;29;20500;-83
2023/09/05 03:11:18;;;;;;;3.85;2.25;;;;;;;17.64;80.34;95060.75;4941467;29;20050;-83
2023/09/05 03:13:44;;;;;;;3.35;2.13;;;;;;;17.48;82.94;95063.69;4941636;29;20086;-83
2023/09/05 03:16:12;;;;;;;3.83;2.20;;;;;;;17.51;81.98;95062.34;4941750;28;20165;-83
2023/09/05 03:18:37;;;;;;;4.95;2.40;;;;;;;17.49;85.77;95057.31;4958464;29;20059;-83
2023/09/05 03:21:03;;;;;;;4.00;2.25;;;;;;;17.65;81.62;95057.81;4958531;29;20126;-83
2023/09/05 03:23:28;;;;;;;4.30;2.33;;;;;;;17.47;82.21;95062.13;4958604;29;20035;-83
2023/09/05 03:25:56;;;;;;;5.53;2.25;;;;;;;17.66;83.49;95061.25;4958556;29;20156;-83
2023/09/05 03:28:22;;;;;;;7.18;2.55;;;;;;;17.64;84.03;95058.88;4958393;29;20042;-83
2023/09/05 03:30:47;;;;;;;2.45;1.90;;;;;;;17.93;83.29;95059.66;4958183;29;20027;-83
2023/09/05 03:33:12;;;;;;;4.20;2.33;;;;;;;18.18;86.01;95074.25;4940948;29;20039;-83
2023/09/05 03:35:38;;;;;;;3.85;2.05;;;;;;;18.08;83.95;95066.53;4940960;29;20043;-82
2023/09/05 03:38:06;;;;;;;4.60;2.00;;;;;;;17.81;84.81;95065.47;4958246;29;20045;-81
2023/09/05 03:40:31;;;;;;;8.23;2.33;;;;;;;18.14;80.52;95072.50;4941132;29;20039;-81
2023/09/05 03:42:57;;;;;;;3.65;2.30;;;;;;;18.22;79.96;95069.94;4925057;29;20443;-81
2023/09/05 03:45:22;;;;;;;3.53;2.00;;;;;;;18.29;78.92;95074.03;4940779;29;20054;-81
2023/09/05 03:47:48;;;;;;;5.57;2.40;;;;;;;17.41;87.34;95073.88;4958076;29;20360;-81
2023/09/05 03:50:15;;;;;;;8.50;2.25;;;;;;;17.88;84.75;95073.78;4924885;29;20389;-81
2023/09/05 03:52:41;;;;;;;3.75;2.22;;;;;;;17.40;91.74;95060.94;4941040;29;20094;-81
2023/09/05 03:55:06;;;;;;;3.88;2.17;;;;;;;16.94;100.00;95058.78;4941060;29;20445;-81
2023/09/05 03:57:32;;;;;;;5.57;2.65;;;;;;;17.20;99.37;95060.22;4940366;29;20356;-81
2023/09/05 03:59:57;;;;;;;4.75;2.30;;;;;;;17.53;98.22;95057.53;4957969;29;20043;-81
2023/09/05 04:02:23;;;;;;;3.10;2.10;;;;;;;17.42;98.83;95064.09;4957892;29;20039;-81
2023/09/05 04:04:48;;;;;;;5.25;2.17;;;;;;;17.70;95.51;95056.13;4940222;29;20349;-81
2023/09/05 04:07:13;;;;;;;5.40;2.25;;;;;;;17.57;95.49;95049.75;4957329;29;20113;-81
2023/09/05 04:09:39;;;;;;;7.43;2.17;;;;;;;17.54;96.28;95056.44;4939973;29;20035;-81
2023/09/05 04:12:05;;;;;;;7.80;2.50;;;;;;;17.72;97.55;95059.28;4959199;29;20461;-81
2023/09/05 04:14:30;;;;;;;3.92;2.13;;;;;;;17.85;94.07;95061.13;4960245;29;20041;-82
2023/09/05 04:16:55;;;;;;;4.53;2.17;;;;;;;17.73;99.17;95045.75;4960203;29;20030;-81
2023/09/05 04:19:21;;;;;;;6.47;2.40;;;;;;;17.88;93.95;95052.56;4960192;29;20445;-81
2023/09/05 04:21:46;;;;;;;4.53;2.58;;;;;;;17.93;93.67;95057.78;4942761;29;20043;-81
2023/09/05 04:24:11;;;;;;;6.18;2.50;;;;;;;18.16;95.11;95059.75;4943038;29;20127;-81
2023/09/05 04:26:37;;;;;;;2.95;1.95;;;;;;;18.14;96.18;95056.59;4942645;29;20039;-83
2023/09/05 04:29:04;;;;;;;7.32;2.13;;;;;;;18.20;91.45;95044.78;4941606;29;20528;-82
2023/09/05 04:31:29;;;;;;;8.00;2.17;;;;;;;18.12;91.99;95054.25;4942550;29;20126;-82
2023/09/05 04:33:55;;;;;;;5.90;2.30;;;;;;;18.06;91.67;95061.53;4959990;29;20476;-83
2023/09/05 04:36:22;;;;;;;8.05;2.55;;;;;;;18.19;92.36;95069.75;4942737;29;20027;-83
2023/09/05 04:38:49;;;;;;;8.57;2.67;;;;;;;18.23;92.27;95062.75;4942896;29;20031;-83
2023/09/05 04:41:20;;;;;;;4.68;2.13;;;;;;;18.24;90.68;95053.72;4959364;29;20031;-86
2023/09/05 04:43:47;;;;;;;6.53;2.30;;;;;;;17.87;96.96;95053.66;4955104;29;20031;-84
2023/09/05 04:46:15;;;;;;;3.47;2.10;;;;;;;17.30;100.00;95049.44;4942755;29;20067;-85
2023/09/05 04:48:40;;;;;;;5.00;2.15;;;;;;;17.69;98.28;95046.63;4942293;29;20031;-85
2023/09/05 04:51:06;;;;;;;5.28;2.30;;;;;;;17.83;96.59;95046.59;4925579;29;20035;-86
2023/09/05 04:53:32;;;;;;;9.27;2.88;;;;;;;17.58;98.71;95046.81;4923499;29;20120;-85
2023/09/05 04:56:00;;;;;;;9.93;2.63;;;;;;;17.59;99.25;95048.38;4923409;29;20038;-85
2023/09/05 04:58:27;;;;;;;4.03;2.60;;;;;;;17.69;97.28;95039.44;4923273;29;20032;-85
2023/09/05 05:00:56;;;;;;;4.63;2.45;;;;;;;17.84;95.86;95038.34;4939679;29;20112;-85
2023/09/05 05:03:22;;;;;;;4.28;2.28;;;;;;;17.56;95.56;95038.38;4908259;29;20028;-85
2023/09/05 05:05:48;;;;;;;4.70;2.30;;;;;;;17.35;100.00;95027.38;4907436;29;20032;-85
2023/09/05 05:08:14;;;;;;;4.70;2.25;;;;;;;17.44;100.00;95030.94;4923312;29;20040;-85
2023/09/05 05:10:39;;;;;;;5.53;2.45;;;;;;;17.93;100.00;95036.59;4923187;29;20450;-85
2023/09/05 05:13:05;;;;;;;5.15;2.22;;;;;;;17.64;99.37;95034.25;4922930;29;20047;-85
2023/09/05 05:15:30;;;;;;;5.85;2.33;;;;;;;17.81;99.17;95033.66;4923036;29;20063;-85
2023/09/05 05:17:56;;;;;;;3.30;2.17;;;;;;;18.14;93.72;95033.50;4922758;29;20118;-85
2023/09/05 05:20:21;;;;;;;4.93;2.50;;;;;;;17.36;100.00;95037.69;4939942;29;20091;-85
2023/09/05 05:22:46;;;;;;;3.92;2.28;;;;;;;17.76;100.00;95039.84;4929438;29;20085;-85
2023/09/05 05:25:12;;;;;;;8.95;2.13;;;;;;;17.48;100.00;95045.16;4941716;29;20034;-85
2023/09/05 05:27:37;;;;;;;5.45;2.53;;;;;;;17.27;100.00;95038.66;4941519;29;20062;-85
2023/09/05 05:30:03;;;;;;;5.80;2.40;;;;;;;17.62;100.00;95042.50;4925677;29;20038;-86
2023/09/05 05:32:28;;;;;;;6.90;2.38;;;;;;;17.40;100.00;95039.75;4959034;29;20384;-85
2023/09/05 05:34:54;;;;;;;6.13;2.63;;;;;;;17.30;100.00;95040.75;4941835;29;20039;-85
2023/09/05 05:37:19;;;;;;;8.43;2.22;;;;;;;17.88;100.00;95044.63;4941751;29;20171;-85
2023/09/05 05:39:45;;;;;;;4.68;2.42;;;;;;;18.07;98.74;95044.53;4940811;29;20354;-85
2023/09/05 05:42:11;;;;;;;3.92;2.03;;;;;;;18.09;100.00;95049.53;4958898;29;20035;-86
2023/09/05 05:44:37;;;;;;;4.25;1.92;;;;;;;18.07;100.00;95055.13;4925849;29;20031;-86
2023/09/05 05:47:03;;;;;;;4.45;2.20;;;;;;;18.04;100.00;95054.94;4941360;29;20341;-86
2023/09/05 05:49:31;;;;;;;7.45;2.58;;;;;;;18.17;100.00;95061.31;4941571;29;20039;-85
2023/09/05 05:51:57;;;;;;;5.90;2.40;;;;;;;18.08;99.94;95056.69;4943735;29;20031;-86
2023/09/05 05:54:23;;;;;;;4.18;2.28;;;;;;;18.19;100.00;95045.88;4922338;29;20342;-86
2023/09/05 05:56:50;;;;;;;5.75;2.30;;;;;;;17.34;100.00;95047.00;4906761;29;20028;-87
2023/09/05 05:59:16;;;;;;;4.95;2.38;;;;;;;18.11;100.00;95060.63;4922808;29;20043;-86
2023/09/05 06:01:41;;;;;;;5.72;2.40;;;;;;;18.23;100.00;95063.56;4939224;29;20071;-86
2023/09/05 06:04:06;;;;;;;4.22;2.20;;;;;;;18.56;100.00;95067.09;4922421;29;20032;-86
2023/09/05 06:06:32;;;;;;;8.25;2.45;;;;;;;18.54;100.00;95069.25;4922256;29;20039;-86
2023/09/05 06:08:57;;;;;;;5.32;2.25;;;;;;;18.85;100.00;95057.91;4922164;29;20032;-87
2023/09/05 06:11:23;;;;;;;5.38;2.65;;;;;;;18.82;100.00;95072.56;4922871;29;20042;-86
2023/09/05 06:13:51;;;;;;;3.47;2.35;;;;;;;19.04;96.62;95066.47;4921810;29;20039;-86
2023/09/05 06:16:17;;;;;;;4.85;2.10;;;;;;;19.03;98.61;95061.50;4924542;29;20036;-86
2023/09/05 06:18:43;;;;;;;5.78;2.25;;;;;;;19.33;91.20;95069.78;4958107;29;20341;-85
2023/09/05 06:21:08;;;;;;;5.97;2.25;;;;;;;19.27;96.66;95069.13;4939341;29;20039;-86
2023/09/05 06:23:35;;;;;;;3.10;1.95;;;;;;;19.52;100.00;95064.22;4958202;29;20039;-86
2023/09/05 06:26:00;;;;;;;3.53;2.17;;;;;;;19.57;100.00;95060.63;4952710;29;20038;-87
2023/09/05 06:28:26;;;;;;;4.43;2.30;;;;;;;19.43;100.00;95064.16;4941221;29;20085;-85
2023/09/05 06:30:56;;;;;;;7.55;2.50;;;;;;;19.59;92.87;95055.81;4925401;29;20433;-85
2023/09/05 06:33:21;;;;;;;5.88;2.40;;;;;;;19.45;96.54;95062.00;4940919;29;20144;-85
2023/09/05 06:35:47;;;;;;;3.92;2.33;;;;;;;19.45;95.74;95054.03;4940866;29;20116;-85
2023/09/05 06:38:14;;;;;;;4.18;2.20;;;;;;;19.45;93.17;95055.91;4958343;29;20061;-86
2023/09/05 06:40:40;;;;;;;4.35;2.47;;;;;;;19.76;96.40;95052.41;4956871;29;20070;-85
2023/09/05 06:43:05;;;;;;;7.10;2.50;;;;;;;19.38;100.00;95066.19;4941086;29;20125;-84
2023/09/05 06:45:31;;;;;;;8.75;2.17;;;;;;;19.14;100.00;95060.13;4914369;29;20024;-85
2023/09/05 06:47:56;;;;;;;4.25;2.28;;;;;;;19.03;100.00;95058.84;4938858;29;20090;-86
2023/09/05 06:50:22;;;;;;;9.48;2.30;;;;;;;19.31;95.46;95064.75;4957014;29;20043;-86
2023/09/05 06:52:48;;;;;;;4.15;2.33;;;;;;;19.57;95.62;95063.28;4927839;29;20031;-86
2023/09/05 06:55:14;;;;;;;6.88;2.45;;;;;;;19.86;98.77;95061.97;4960620;29;20034;-85
2023/09/05 06:57:39;;;;;;;4.60;2.38;;;;;;;19.96;93.63;95066.25;4960284;29;20122;-86
2023/09/05 07:00:06;;;;;;;3.15;2.00;;;;;;;19.69;96.43;95065.38;4960050;29;20410;-86
2023/09/05 07:02:31;;;;;;;3.80;2.00;;;;;;;19.50;96.20;95069.03;4961391;29;20039;-87
2023/09/05 07:04:57;;;;;;;7.28;2.30;;;;;;;19.23;96.39;95065.50;4960712;29;20489;-86
2023/09/05 07:07:22;;;;;;;4.25;2.20;;;;;;;19.42;100.00;95067.91;4938318;29;20107;-86
2023/09/05 07:09:48;;;;;;;6.53;2.20;;;;;;;19.95;94.34;95062.03;4909520;29;20315;-86
2023/09/05 07:12:13;;;;;;;4.97;2.20;;;;;;;20.09;93.36;95065.34;4925287;29;20345;-85
2023/09/05 07:14:38;;;;;;;9.80;2.42;;;;;;;20.33;90.52;95064.09;4925157;29;20055;-85
2023/09/05 07:17:06;;;;;;;5.32;2.05;;;;;;;19.70;92.15;95061.63;4941729;29;20038;-85
2023/09/05 07:19:31;;;;;;;11.27;2.50;;;;;;;19.52;95.71;95066.88;4909500;29;20035;-86
2023/09/05 07:21:57;;;;;;;14.15;2.83;;;;;;;19.83;100.00;95074.00;4925094;29;20119;-86
2023/09/05 07:24:23;;;;;;;5.43;2.55;;;;;;;19.96;98.10;95068.91;4925127;29;20394;-86
2023/09/05 07:26:48;;;;;;;4.95;2.65;;;;;;;20.33;92.10;95075.53;4924717;29;20039;-86
2023/09/05 07:29:15;;;;;;;3.95;2.30;;;;;;;20.18;90.29;95071.44;4952590;29;20121;-87
2023/09/05 07:31:41;;;;;;;6.80;2.60;;;;;;;20.96;86.27;95071.78;4944349;29;20054;-86
2023/09/05 07:34:07;;;;;;;4.38;2.13;;;;;;;21.10;83.53;95084.91;4943881;29;20031;-85
2023/09/05 07:36:34;;;;;;;5.72;2.55;;;;;;;20.56;85.57;95085.25;4943576;29;20027;-85
2023/09/05 07:39:01;;;;;;;8.48;2.45;;;;;;;19.98;90.54;95080.03;4942930;29;20031;-85
2023/09/05 07:41:28;;;;;;;6.28;3.00;;;;;;;20.09;91.52;95091.94;4928515;29;20457;-86
2023/09/05 07:43:53;;;;;;;5.55;2.45;;;;;;;20.32;94.57;95084.63;4943266;29;20027;-86
2023/09/05 07:46:18;;;;;;;6.43;2.45;;;;;;;20.66;96.32;95087.59;4943366;29;20034;-86
2023/09/05 07:48:46;;;;;;;7.20;2.50;;;;;;;20.09;100.00;95089.28;4960605;29;20039;-85
2023/09/05 07:51:11;;;;;;;7.93;2.88;;;;;;;20.90;90.57;95102.31;4960671;29;20066;-86
2023/09/05 07:53:37;;;;;;;6.53;2.60;;;;;;;20.29;93.75;95103.06;4960686;29;20067;-85
2023/09/05 07:56:04;;;;;;;5.80;2.40;;;;;;;21.19;88.03;95106.97;4960598;29;20038;-85
2023/09/05 07:58:32;;;;;;;10.85;2.20;;;;;;;21.68;81.73;95110.47;4931507;29;20091;-86
2023/09/05 08:01:09;;;;;;;7.88;2.65;;;;;;;21.23;90.64;95117.78;4940812;29;20090;-85
2023/09/05 08:03:41;;;;;;;9.40;2.67;;;;;;;20.93;87.65;95120.31;4941967;29;20041;-86
2023/09/05 08:06:06;;;;;;;6.20;2.30;;;;;;;21.14;83.07;95117.03;4927735;29;20031;-86
2023/09/05 08:08:31;;;;;;;8.52;2.83;;;;;;;21.17;84.74;95111.84;4943208;29;20041;-84
2023/09/05 08:10:57;;;;;;;6.00;2.10;;;;;;;20.66;88.26;95113.44;4923275;29;20038;-85
2023/09/05 08:13:23;;;;;;;3.70;2.13;;;;;;;20.48;88.11;95108.09;4940652;29;20027;-84
2023/09/05 08:15:53;;;;;;;5.40;2.35;;;;;;;21.06;87.38;95115.94;4908203;29;20441;-84
2023/09/05 08:18:18;;;;;;;3.85;2.20;;;;;;;20.96;81.88;95105.59;4940895;29;20035;-86
2023/09/05 08:20:44;;;;;;;9.15;2.17;;;;;;;20.70;85.94;95106.38;4908049;29;20035;-86
2023/09/05 08:23:10;;;;;;;7.13;2.72;;;;;;;20.63;93.17;95112.16;4927221;29;20460;-85
2023/09/05 08:25:36;;;;;;;4.85;2.58;;;;;;;20.36;90.60;95102.59;4956148;29;20031;-86
2023/09/05 08:28:01;;;;;;;7.75;2.40;;;;;;;20.95;90.25;95098.72;4926460;29;20031;-85
2023/09/05 08:30:28;;;;;;;8.30;3.05;;;;;;;20.71;88.86;95106.06;4942840;29;20232;-85
2023/09/05 08:33:01;;;;;;;6.38;2.50;;;;;;;20.36;91.37;95114.03;4960117;29;20035;-86
2023/09/05 08:35:36;;;;;;;8.82;2.80;;;;;;;20.54;90.09;95117.50;4927081;29;20170;-86
2023/09/05 08:38:04;;;;;;;5.10;2.60;;;;;;;20.92;87.98;95110.78;4942758;29;20464;-86
2023/09/05 08:40:33;;;;;;;6.40;3.10;;;;;;;20.47;89.33;95111.84;4942737;29;20106;-84
2023/09/05 08:43:21;;;;;;;;;;;;;;;;;;;;;
2023/09/05 08:46:01;;;;;;;6.43;2.53;;;;;;;21.01;88.26;95119.53;4935463;29;20030;-82
2023/09/05 08:48:32;;;;;;;5.30;2.00;;;;;;;21.45;92.39;95127.47;4925302;29;20035;-84
2023/09/05 08:51:10;;;;;;;3.25;2.28;;;;;;;21.43;86.23;95118.22;4907585;29;20042;-84
2023/09/05 08:53:55;;;;;;;10.32;2.55;;;;;;;21.16;88.25;95122.81;4931196;29;20355;-86
2023/09/05 08:56:21;;;;;;;5.28;2.30;;;;;;;21.73;86.60;95118.28;4940479;29;20097;-86
2023/09/05 08:58:47;;;;;;;5.25;2.40;;;;;;;20.77;88.94;95120.78;4958849;29;20043;-85
2023/09/05 09:01:12;;;;;;;5.82;2.63;;;;;;;21.00;85.26;95125.97;4942091;29;20046;-84
2023/09/05 09:03:38;;;;;;;9.65;2.67;;;;;;;20.66;86.87;95124.88;4959285;29;20058;-82
2023/09/05 09:06:03;;;;;;;6.95;2.55;;;;;;;20.94;87.59;95126.44;4959376;29;20516;-83
2023/09/05 09:08:43;;;;;;;6.22;2.67;;;;;;;20.06;88.73;95119.13;4942140;29;20042;-82
2023/09/05 09:11:09;;;;;;;8.63;2.65;;;;;;;20.29;87.48;95116.38;4959250;29;20035;-82
2023/09/05 09:13:38;;;;;;;4.38;2.63;;;;;;;21.08;85.32;95121.72;4941808;29;20046;-83
2023/09/05 09:16:05;;;;;;;6.75;3.13;;;;;;;21.07;87.33;95122.84;4941850;29;20035;-82
2023/09/05 09:18:31;;;;;;;8.00;2.95;;;;;;;20.98;87.72;95116.72;4941950;29;20069;-82
2023/09/05 09:21:00;;;;;;;4.32;2.50;;;;;;;21.25;89.16;95112.13;4942010;29;20039;-82
2023/09/05 09:23:26;;;;;;;5.38;2.22;;;;;;;21.23;90.68;95112.47;4942357;29;20039;-82
2023/09/05 09:25:54;;;;;;;6.20;2.72;;;;;;;21.33;95.90;95120.09;4924393;29;20035;-83
2023/09/05 09:28:31;;;;;;;4.78;2.15;;;;;;;21.41;92.27;95120.41;4941672;29;20058;-83
2023/09/05 09:31:02;;;;;;;5.70;3.13;;;;;;;20.44;85.08;95115.13;4942160;29;20027;-83
2023/09/05 09:33:31;;;;;;;5.07;2.88;;;;;;;21.25;85.84;95112.94;4940161;29;20045;-81
2023/09/05 09:36:05;;;;;;;3.90;2.65;;;;;;;21.92;90.94;95119.75;4950274;29;20114;-83
2023/09/05 09:38:30;;;;;;;;;;;;;;;21.26;87.01;95113.69;4922987;29;20031;-82
2023/09/05 09:40:57;;;;;;;5.30;2.70;;;;;;;20.90;82.17;95108.44;4922281;29;19925;-81
2023/09/05 09:43:22;;;;;;;6.10;2.58;;;;;;;21.47;83.97;95103.13;4939525;29;20501;-83
2023/09/05 09:45:47;;;;;;;4.65;2.80;;;;;;;21.17;80.07;95108.38;4950113;29;20038;-82
2023/09/05 09:48:15;;;;;;;4.65;2.70;;;;;;;21.66;76.05;95099.31;4958724;29;20509;-82
2023/09/05 09:50:43;;;;;;;11.10;3.50;;;;;;;20.91;71.51;95114.53;4941531;29;20326;-82
2023/09/05 09:53:12;;;;;;;6.65;2.90;;;;;;;21.11;72.18;95097.13;4941647;29;20043;-83
2023/09/05 09:55:43;;;;;;;5.63;3.05;;;;;;;21.11;75.27;95099.00;4941764;29;20094;-81
2023/09/05 09:58:13;;;;;;;12.35;3.60;;;;;;;20.60;79.00;95094.16;4938513;29;20062;-82
2023/09/05 10:00:45;;;;;;;8.07;4.00;;;;;;;20.35;79.98;95085.84;4931906;29;20039;-83
2023/09/05 10:03:12;;;;;;;7.40;3.20;;;;;;;21.49;84.96;95092.16;4941951;29;20039;-82
2023/09/05 10:05:41;;;;;;;12.50;3.65;;;;;;;21.03;86.63;95090.72;4939656;29;20039;-84
2023/09/05 10:08:08;;;;;;;7.13;3.75;;;;;;;21.22;79.88;95088.78;4950047;29;20034;-82
2023/09/05 10:10:34;;;;;;;8.88;3.05;;;;;;;21.64;80.34;95086.28;4939216;29;20081;-81
2023/09/05 10:13:00;;;;;;;10.18;3.72;;;;;;;21.97;80.48;95082.25;4940892;29;20042;-83
2023/09/05 10:15:29;;;;;;;7.20;3.53;;;;;;;21.65;82.54;95079.06;4925096;29;20031;-83
2023/09/05 10:17:54;;;;;;;8.07;2.85;;;;;;;21.82;82.89;95084.38;4941182;29;20039;-84
2023/09/05 10:20:21;;;;;;;8.60;3.50;;;;;;;21.94;82.70;95078.34;4958238;29;20035;-83
2023/09/05 10:22:46;;;;;;;5.85;2.88;;;;;;;21.94;91.82;95078.34;4958262;29;20057;-81
2023/09/05 10:25:13;;;;;;;8.90;3.03;;;;;;;22.24;87.44;95074.88;4954232;29;20043;-82
2023/09/05 10:27:39;;;;;;;7.82;3.72;;;;;;;22.14;80.68;95076.81;4959403;28;20027;-83
2023/09/05 10:30:07;;;;;;;6.75;3.95;;;;;;;21.92;79.51;95079.75;4944804;29;20422;-82
2023/09/05 10:32:32;;;;;;;8.75;3.53;;;;;;;21.90;75.61;95074.75;4940457;29;20031;-83
2023/09/05 10:35:02;;;;;;;12.10;3.70;;;;;;;22.06;68.63;95080.28;4944099;29;20401;-82
2023/09/05 10:37:33;;;;;;;10.68;3.65;;;;;;;21.63;72.77;95076.72;4950201;29;20039;-82
2023/09/05 10:40:10;;;;;;;5.30;3.08;;;;;;;21.77;73.06;95073.09;4961474;29;20035;-82
2023/09/05 10:42:42;;;;;;;4.30;2.40;;;;;;;22.38;72.75;95086.06;4929608;29;20121;-83
2023/09/05 10:45:23;;;;;;;6.93;2.78;;;;;;;22.09;66.01;95070.88;4944631;29;20054;-84
2023/09/05 10:47:54;;;;;;;7.45;3.05;;;;;;;22.41;66.55;95072.06;4961547;29;20035;-84
2023/09/05 10:50:20;;;;;;;6.53;3.10;;;;;;;22.15;62.80;95065.03;4944609;29;20034;-82
2023/09/05 10:52:49;;;;;;;7.30;3.30;;;;;;;22.10;66.26;95070.56;4937970;29;20086;-83
2023/09/05 10:55:25;;;;;;;10.30;2.70;;;;;;;21.68;66.01;95065.16;4924194;29;20049;-82
2023/09/05 10:57:50;;;;;;;4.15;2.78;;;;;;;21.99;64.82;95064.03;4958920;29;20047;-83
2023/09/05 11:00:20;;;;;;;10.07;3.22;;;;;;;22.33;65.21;95067.56;4941238;29;20088;-84
2023/09/05 11:02:47;;;;;;;12.95;3.28;;;;;;;22.40;65.22;95051.81;4943658;29;20492;-83
2023/09/05 11:05:19;;;;;;;6.88;2.80;;;;;;;21.92;63.33;95064.53;4950133;29;20095;-83
2023/09/05 11:07:48;;;;;;;10.13;2.93;;;;;;;21.79;68.11;95076.97;4944501;29;20078;-83
2023/09/05 11:10:26;;;;;;;7.10;2.95;;;;;;;21.52;68.50;95067.53;4944718;29;20046;-83
2023/09/05 11:12:52;;;;;;;8.63;3.08;;;;;;;21.53;68.76;95066.41;4957772;29;20035;-83
2023/09/05 11:15:31;;;;;;;10.65;3.13;;;;;;;21.97;67.19;95058.25;4944155;29;20041;-84
2023/09/05 11:18:08;;;;;;;8.48;3.22;;;;;;;21.71;69.23;95041.25;4961149;29;20035;-83
2023/09/05 11:20:42;;;;;;;11.00;3.60;;;;;;;21.78;66.27;95046.09;4961179;29;20039;-82
2023/09/05 11:23:16;;;;;;;5.38;3.30;;;;;;;21.10;65.09;95038.84;4943857;29;20353;-82
2023/09/05 11:25:50;;;;;;;8.20;3.55;;;;;;;21.37;66.22;95048.28;4943741;29;20386;-85
2023/09/05 11:28:16;;;;;;;10.45;3.22;;;;;;;22.15;67.92;95048.22;4927487;29;20027;-84
2023/09/05 11:30:43;;;;;;;8.68;3.20;;;;;;;22.37;64.57;95038.34;4943515;29;20042;-84
2023/09/05 11:33:19;;;;;;;6.15;3.13;;;;;;;22.01;66.86;95045.81;4943657;29;20081;-83